createdAt,value
2019-01-31T00:01:21.946Z,99578.20
2019-01-31T00:04:09.788Z,99570.28
2019-01-31T00:06:57.933Z,99569.66
2019-01-31T00:09:31.127Z,99573.57
2019-01-31T00:12:19.069Z,99571.06
2019-01-31T00:15:01.636Z,99569.75
2019-01-31T00:17:48.004Z,99563.77
2019-01-31T00:20:25.005Z,99572.55
2019-01-31T00:23:16.264Z,99564.88
2019-01-31T00:26:06.102Z,99562.89
2019-01-31T00:28:55.625Z,99562.89
2019-01-31T00:31:28.814Z,99549.95
2019-01-31T00:34:24.648Z,99557.87
2019-01-31T00:36:57.775Z,99557.41
2019-01-31T00:39:59.681Z,99558.28
2019-01-31T00:42:36.765Z,99549.33
2019-01-31T00:45:30.650Z,99550.25
2019-01-31T00:48:06.538Z,99557.58
2019-01-31T00:50:48.361Z,99550.41
2019-01-31T00:53:24.309Z,99550.64
2019-01-31T00:56:03.136Z,99545.30
2019-01-31T00:58:44.590Z,99540.52
2019-01-31T01:01:29.229Z,99539.02
2019-01-31T01:04:25.037Z,99539.34
2019-01-31T01:07:00.965Z,99542.95
2019-01-31T01:09:42.733Z,99546.86
2019-01-31T01:12:18.535Z,99541.52
2019-01-31T01:15:03.144Z,99538.78
2019-01-31T01:17:47.909Z,99542.56
2019-01-31T01:20:52.757Z,99540.45
2019-01-31T01:23:34.569Z,99537.22
2019-01-31T01:26:07.579Z,99536.50
2019-01-31T01:28:52.519Z,99548.84
2019-01-31T01:31:25.772Z,99537.91
2019-01-31T01:34:27.537Z,99543.28
2019-01-31T01:37:12.287Z,99546.18
2019-01-31T01:39:45.216Z,99550.64
2019-01-31T01:42:33.370Z,99543.18
2019-01-31T01:45:08.973Z,99553.14
2019-01-31T01:47:47.857Z,99541.06
2019-01-31T01:50:20.872Z,99546.47
2019-01-31T01:52:53.917Z,99546.41
2019-01-31T01:55:35.693Z,99543.25
2019-01-31T01:58:32.867Z,99539.23
2019-01-31T02:01:18.024Z,99539.08
2019-01-31T02:04:08.107Z,99528.95
2019-01-31T02:07:15.535Z,99520.37
2019-01-31T02:09:54.393Z,99526.59
2019-01-31T02:12:27.244Z,99526.44
2019-01-31T02:15:00.898Z,99521.03
2019-01-31T02:17:59.671Z,99525.82
2019-01-31T02:20:44.473Z,99538.16
2019-01-31T02:23:17.791Z,99536.57
2019-01-31T02:25:50.979Z,99529.50
2019-01-31T02:28:51.570Z,99541.84
2019-01-31T02:31:30.188Z,99540.28
2019-01-31T02:34:11.830Z,99542.17
2019-01-31T02:37:02.695Z,99536.57
2019-01-31T02:39:44.312Z,99535.95
2019-01-31T02:42:32.240Z,99536.41
2019-01-31T02:45:07.878Z,99537.94
2019-01-31T02:47:46.523Z,99539.08
2019-01-31T02:50:28.092Z,99540.34
2019-01-31T02:53:20.607Z,99524.42
2019-01-31T02:56:02.719Z,99530.05
2019-01-31T02:58:44.594Z,99529.05
2019-01-31T03:01:28.865Z,99533.34
2019-01-31T03:04:19.914Z,99532.34
2019-01-31T03:07:16.406Z,99533.34
2019-01-31T03:10:04.460Z,99534.78
2019-01-31T03:12:49.500Z,99540.64
2019-01-31T03:15:22.538Z,99535.00
2019-01-31T03:17:58.682Z,99539.17
2019-01-31T03:20:43.644Z,99537.52
2019-01-31T03:23:40.949Z,99534.78
2019-01-31T03:26:23.099Z,99534.67
2019-01-31T03:29:18.543Z,99540.97
2019-01-31T03:31:53.977Z,99532.33
2019-01-31T03:34:29.697Z,99539.79
2019-01-31T03:37:20.788Z,99535.63
2019-01-31T03:40:15.980Z,99531.39
2019-01-31T03:43:08.790Z,99525.27
2019-01-31T03:46:06.003Z,99528.33
2019-01-31T03:48:41.808Z,99538.58
2019-01-31T03:51:20.267Z,99534.52
2019-01-31T03:53:58.370Z,99537.05
2019-01-31T03:56:37.424Z,99535.69
2019-01-31T03:59:13.321Z,99536.56
2019-01-31T04:02:04.222Z,99533.83
2019-01-31T04:04:55.203Z,99537.52
2019-01-31T04:07:24.798Z,99537.67
2019-01-31T04:09:54.444Z,99537.52
2019-01-31T04:12:24.874Z,99543.14
2019-01-31T04:14:54.354Z,99535.63
2019-01-31T04:17:24.153Z,99538.23
2019-01-31T04:19:54.115Z,99540.41
2019-01-31T04:22:23.774Z,99543.20
2019-01-31T04:24:53.413Z,99543.14
2019-01-31T04:27:23.106Z,99544.25
2019-01-31T04:29:52.844Z,99547.31
2019-01-31T04:32:22.529Z,99544.31
2019-01-31T04:34:52.248Z,99548.98
2019-01-31T04:37:21.793Z,99540.02
2019-01-31T04:39:51.458Z,99544.81
2019-01-31T04:42:21.207Z,99541.58
2019-01-31T04:44:50.972Z,99538.52
2019-01-31T04:47:20.924Z,99542.03
2019-01-31T04:49:50.545Z,99548.94
2019-01-31T04:52:20.269Z,99550.70
2019-01-31T04:54:49.983Z,99552.33
2019-01-31T04:57:21.268Z,99555.16
2019-01-31T04:59:51.043Z,99556.83
2019-01-31T05:02:20.686Z,99558.29
2019-01-31T05:04:50.519Z,99568.14
2019-01-31T05:07:20.277Z,99558.62
2019-01-31T05:09:49.961Z,99559.95
2019-01-31T05:12:19.543Z,99566.80
2019-01-31T05:14:49.273Z,99571.91
2019-01-31T05:17:18.952Z,99580.16
2019-01-31T05:19:49.132Z,99586.84
2019-01-31T05:22:18.802Z,99579.08
2019-01-31T05:24:48.714Z,99574.75
2019-01-31T05:27:18.361Z,99581.27
2019-01-31T05:29:48.272Z,99582.99
2019-01-31T05:32:17.903Z,99587.16
2019-01-31T05:34:47.712Z,99593.94
2019-01-31T05:37:17.343Z,99587.75
2019-01-31T05:39:47.114Z,99590.16
2019-01-31T05:42:16.823Z,99595.18
2019-01-31T05:44:46.664Z,99594.00
2019-01-31T05:47:16.397Z,99595.70
2019-01-31T05:49:46.212Z,99599.09
2019-01-31T05:52:15.828Z,99592.31
2019-01-31T05:54:45.640Z,99601.20
2019-01-31T05:57:15.384Z,99604.89
2019-01-31T05:59:45.512Z,99603.00
2019-01-31T06:02:15.166Z,99612.58
2019-01-31T06:04:45.193Z,99612.91
2019-01-31T06:07:14.760Z,99616.45
2019-01-31T06:09:44.434Z,99615.13
2019-01-31T06:12:14.073Z,99618.09
2019-01-31T06:14:43.740Z,99630.38
2019-01-31T06:17:13.849Z,99627.05
2019-01-31T06:19:43.722Z,99635.30
2019-01-31T06:22:13.403Z,99635.48
2019-01-31T06:24:43.431Z,99644.05
2019-01-31T06:27:13.190Z,99642.87
2019-01-31T06:29:42.848Z,99640.76
2019-01-31T06:32:12.459Z,99643.13
2019-01-31T06:34:42.112Z,99643.02
2019-01-31T06:37:11.773Z,99645.64
2019-01-31T06:39:41.534Z,99657.97
2019-01-31T06:42:12.318Z,99649.84
2019-01-31T06:44:42.116Z,99654.71
2019-01-31T06:47:12.040Z,99657.17
2019-01-31T06:49:41.888Z,99659.84
2019-01-31T06:52:12.029Z,99661.73
2019-01-31T06:54:41.612Z,99668.89
2019-01-31T06:57:17.779Z,99667.85
2019-01-31T06:59:47.565Z,99662.42
2019-01-31T07:02:17.211Z,99666.61
2019-01-31T07:04:46.816Z,99666.28
2019-01-31T07:07:16.789Z,99671.78
2019-01-31T07:09:46.410Z,99673.81
2019-01-31T07:12:16.061Z,99674.38
2019-01-31T07:14:45.970Z,99684.61
2019-01-31T07:17:18.370Z,99679.11
2019-01-31T07:19:47.355Z,99682.86
2019-01-31T07:22:17.147Z,99683.27
2019-01-31T07:24:46.938Z,99684.61
2019-01-31T07:27:16.698Z,99687.59
2019-01-31T07:29:52.207Z,99686.33
2019-01-31T07:32:21.982Z,99677.13
2019-01-31T07:34:51.691Z,99676.20
2019-01-31T07:37:23.162Z,99678.71
2019-01-31T07:39:52.949Z,99677.22
2019-01-31T07:42:22.642Z,99672.70
2019-01-31T07:44:52.517Z,99677.05
2019-01-31T07:47:22.213Z,99683.93
2019-01-31T07:49:52.027Z,99679.08
2019-01-31T07:52:21.794Z,99681.87
2019-01-31T07:54:51.657Z,99682.27
2019-01-31T07:57:21.362Z,99676.38
2019-01-31T07:59:51.181Z,99681.03
2019-01-31T08:02:20.958Z,99683.30
2019-01-31T08:04:50.660Z,99688.31
2019-01-31T08:07:20.306Z,99687.13
2019-01-31T08:09:50.132Z,99681.16
2019-01-31T08:12:19.774Z,99693.34
2019-01-31T08:14:50.135Z,99689.27
2019-01-31T08:17:19.801Z,99687.64
2019-01-31T08:19:49.618Z,99694.13
2019-01-31T08:22:19.362Z,99694.88
2019-01-31T08:24:49.357Z,99695.97
2019-01-31T08:27:19.180Z,99703.30
2019-01-31T08:29:48.937Z,99702.52
2019-01-31T08:32:18.452Z,99702.13
2019-01-31T08:34:48.274Z,99707.94
2019-01-31T08:37:17.966Z,99711.32
2019-01-31T08:39:47.820Z,99712.03
2019-01-31T08:42:17.517Z,99711.09
2019-01-31T08:44:47.427Z,99708.71
2019-01-31T08:47:17.084Z,99717.59
2019-01-31T08:49:46.872Z,99715.47
2019-01-31T08:52:16.892Z,99717.69
2019-01-31T08:54:46.608Z,99720.50
2019-01-31T08:57:16.337Z,99717.77
2019-01-31T08:59:45.969Z,99726.41
2019-01-31T09:02:15.588Z,99717.77
2019-01-31T09:04:45.365Z,99725.70
2019-01-31T09:07:15.189Z,99721.38
2019-01-31T09:09:44.812Z,99728.47
2019-01-31T09:12:15.616Z,99735.55
2019-01-31T09:14:45.589Z,99741.73
2019-01-31T09:17:15.258Z,99740.40
2019-01-31T09:19:44.821Z,99745.52
2019-01-31T09:22:17.926Z,99745.52
2019-01-31T09:25:02.803Z,99752.66
2019-01-31T09:27:52.417Z,99744.88
2019-01-31T09:30:43.434Z,99753.29
2019-01-31T09:33:31.548Z,99755.49
2019-01-31T09:36:22.625Z,99765.73
2019-01-31T09:39:27.491Z,99761.23
2019-01-31T09:42:06.308Z,99760.45
2019-01-31T09:44:39.243Z,99761.00
2019-01-31T09:47:36.700Z,99758.01
2019-01-31T09:50:28.013Z,99756.43
2019-01-31T09:53:02.474Z,99763.05
2019-01-31T09:55:59.590Z,99769.41
2019-01-31T09:58:32.700Z,99765.39
2019-01-31T10:01:20.910Z,99774.14
2019-01-31T10:03:53.850Z,99765.88
2019-01-31T10:06:26.781Z,99756.44
2019-01-31T10:09:22.475Z,99764.30
2019-01-31T10:12:01.536Z,99767.81
2019-01-31T10:14:40.422Z,99771.99
2019-01-31T10:17:48.822Z,99768.87
2019-01-31T10:20:24.680Z,99767.04
2019-01-31T10:23:06.760Z,99759.08
2019-01-31T10:25:54.606Z,99764.55
2019-01-31T10:28:36.430Z,99755.64
2019-01-31T10:31:30.347Z,99764.28
2019-01-31T10:34:08.967Z,99758.42
2019-01-31T10:36:42.045Z,99761.59
2019-01-31T10:39:17.697Z,99767.28
2019-01-31T10:42:11.934Z,99766.38
2019-01-31T10:45:05.982Z,99763.94
2019-01-31T10:47:44.572Z,99754.06
2019-01-31T10:50:32.452Z,99762.14
2019-01-31T10:53:35.974Z,99762.47
2019-01-31T10:56:44.302Z,99761.81
2019-01-31T10:59:22.932Z,99763.48
2019-01-31T11:02:07.983Z,99768.30
2019-01-31T11:04:53.167Z,99769.02
2019-01-31T11:07:37.828Z,99769.58
2019-01-31T11:10:33.429Z,99775.02
2019-01-31T11:13:21.563Z,99775.97
2019-01-31T11:16:00.335Z,99772.84
2019-01-31T11:18:36.266Z,99775.80
2019-01-31T11:21:25.641Z,99785.28
2019-01-31T11:24:10.533Z,99774.54
2019-01-31T11:27:04.723Z,99781.48
2019-01-31T11:29:55.626Z,99786.59
2019-01-31T11:32:49.714Z,99781.45
2019-01-31T11:35:34.866Z,99789.52
2019-01-31T11:38:13.710Z,99787.02
2019-01-31T11:41:09.536Z,99790.41
2019-01-31T11:43:57.582Z,99787.90
2019-01-31T11:46:53.370Z,99789.28
2019-01-31T11:49:26.346Z,99798.94
2019-01-31T11:52:02.153Z,99790.30
2019-01-31T11:54:34.994Z,99784.55
2019-01-31T11:57:10.969Z,99787.02
2019-01-31T11:59:40.851Z,99789.56
2019-01-31T12:02:10.665Z,99795.41
2019-01-31T12:04:40.372Z,99789.45
2019-01-31T12:07:11.230Z,99787.87
2019-01-31T12:09:41.238Z,99795.87
2019-01-31T12:12:11.230Z,99786.98
2019-01-31T12:14:41.255Z,99787.97
2019-01-31T12:17:10.978Z,99788.42
2019-01-31T12:19:40.614Z,99783.88
2019-01-31T12:22:10.472Z,99790.97
2019-01-31T12:24:40.178Z,99788.31
2019-01-31T12:27:10.095Z,99795.16
2019-01-31T12:29:39.735Z,99794.38
2019-01-31T12:32:09.537Z,99795.16
2019-01-31T12:34:39.547Z,99789.88
2019-01-31T12:37:09.238Z,99796.70
2019-01-31T12:39:38.949Z,99794.02
2019-01-31T12:42:09.536Z,99802.37
2019-01-31T12:44:39.764Z,99797.19
2019-01-31T12:47:09.530Z,99798.77
2019-01-31T12:49:39.238Z,99792.63
2019-01-31T12:52:08.993Z,99797.23
2019-01-31T12:54:38.796Z,99801.40
2019-01-31T12:57:08.551Z,99803.82
2019-01-31T12:59:38.213Z,99801.95
2019-01-31T13:02:08.224Z,99801.18
2019-01-31T13:04:37.944Z,99810.13
2019-01-31T13:07:08.178Z,99811.34
2019-01-31T13:09:37.876Z,99807.47
2019-01-31T13:12:08.286Z,99806.61
2019-01-31T13:14:38.016Z,99814.64
2019-01-31T13:17:07.888Z,99816.14
2019-01-31T13:19:37.823Z,99819.70
2019-01-31T13:22:07.433Z,99803.86
2019-01-31T13:24:37.314Z,99820.09
2019-01-31T13:27:07.613Z,99816.30
2019-01-31T13:29:37.402Z,99814.16
2019-01-31T13:32:07.022Z,99824.23
2019-01-31T13:34:36.849Z,99825.18
2019-01-31T13:37:06.653Z,99819.44
2019-01-31T13:39:36.425Z,99829.91
2019-01-31T13:42:06.077Z,99828.69
2019-01-31T13:44:35.870Z,99825.67
2019-01-31T13:47:05.525Z,99838.30
2019-01-31T13:49:35.386Z,99840.30
2019-01-31T13:52:05.177Z,99834.66
2019-01-31T13:54:35.241Z,99827.16
2019-01-31T13:57:04.971Z,99841.23
2019-01-31T13:59:34.701Z,99839.02
2019-01-31T14:02:04.376Z,99836.44
2019-01-31T14:04:34.331Z,99841.59
2019-01-31T14:07:04.060Z,99834.42
2019-01-31T14:09:33.768Z,99840.25
2019-01-31T14:12:03.513Z,99832.81
2019-01-31T14:14:33.560Z,99838.17
2019-01-31T14:17:03.281Z,99841.23
2019-01-31T14:19:33.087Z,99838.39
2019-01-31T14:22:02.768Z,99842.37
2019-01-31T14:24:32.639Z,99834.33
2019-01-31T14:27:02.339Z,99840.81
2019-01-31T14:29:32.442Z,99841.58
2019-01-31T14:32:02.224Z,99842.20
2019-01-31T14:34:32.096Z,99845.91
2019-01-31T14:37:01.857Z,99844.04
2019-01-31T14:39:31.726Z,99844.98
2019-01-31T14:42:01.445Z,99850.41
2019-01-31T14:44:31.205Z,99849.66
2019-01-31T14:47:01.036Z,99850.45
2019-01-31T14:49:30.715Z,99855.64
2019-01-31T14:52:00.291Z,99858.10
2019-01-31T14:54:30.103Z,99861.38
2019-01-31T14:56:59.838Z,99858.66
2019-01-31T14:59:29.511Z,99861.33
2019-01-31T15:05:36.592Z,99856.20
2019-01-31T15:08:05.202Z,99860.27
2019-01-31T15:10:35.179Z,99857.04
2019-01-31T15:13:05.086Z,99856.91
2019-01-31T15:15:35.105Z,99862.11
2019-01-31T15:18:05.749Z,99849.48
2019-01-31T15:20:38.797Z,99857.02
2019-01-31T15:23:08.502Z,99848.30
2019-01-31T15:25:38.865Z,99865.53
2019-01-31T15:28:12.058Z,99861.38
2019-01-31T15:30:43.274Z,99870.44
2019-01-31T15:33:13.532Z,99871.58
2019-01-31T15:35:43.447Z,99868.12
2019-01-31T15:38:13.893Z,99868.92
2019-01-31T15:40:46.067Z,99869.68
2019-01-31T15:43:17.190Z,99874.80
2019-01-31T15:45:59.337Z,99869.57
2019-01-31T15:48:48.450Z,99873.94
2019-01-31T15:51:21.318Z,99871.57
2019-01-31T15:53:51.957Z,99868.31
2019-01-31T15:56:22.349Z,99866.38
2019-01-31T15:58:52.664Z,99868.11
2019-01-31T16:01:23.242Z,99866.92
2019-01-31T16:03:53.599Z,99867.66
2019-01-31T16:06:24.316Z,99872.61
2019-01-31T16:08:54.682Z,99873.44
2019-01-31T16:11:24.732Z,99874.81
2019-01-31T16:13:55.601Z,99875.30
2019-01-31T16:16:26.229Z,99875.48
2019-01-31T16:18:56.847Z,99876.57
2019-01-31T16:21:27.182Z,99881.45
2019-01-31T16:23:57.549Z,99885.30
2019-01-31T16:26:28.050Z,99891.70
2019-01-31T16:28:59.142Z,99899.05
2019-01-31T16:31:35.891Z,99893.70
2019-01-31T16:34:06.490Z,99896.65
2019-01-31T16:36:37.748Z,99897.32
2019-01-31T16:39:08.745Z,99900.39
2019-01-31T16:41:38.933Z,99896.17
2019-01-31T16:44:11.048Z,99896.66
2019-01-31T16:46:41.635Z,99897.05
2019-01-31T16:49:12.012Z,99893.50
2019-01-31T16:51:45.447Z,99900.79
2019-01-31T16:54:14.444Z,99898.38
2019-01-31T16:56:45.276Z,99903.06
2019-01-31T16:59:16.106Z,99901.06
2019-01-31T17:01:46.464Z,99898.66
2019-01-31T17:04:16.927Z,99902.85
2019-01-31T17:06:47.680Z,99903.65
2019-01-31T17:09:18.372Z,99909.66
2019-01-31T17:11:48.874Z,99908.91
2019-01-31T17:14:19.035Z,99906.32
2019-01-31T17:16:49.418Z,99911.66
2019-01-31T17:19:19.606Z,99913.83
2019-01-31T17:21:50.121Z,99914.84
2019-01-31T17:24:22.994Z,99921.70
2019-01-31T17:26:52.682Z,99915.81
2019-01-31T17:29:22.723Z,99919.84
2019-01-31T17:31:52.686Z,99918.97
2019-01-31T17:34:23.240Z,99917.53
2019-01-31T17:36:53.805Z,99915.72
2019-01-31T17:39:23.911Z,99924.85
2019-01-31T17:41:54.093Z,99926.42
2019-01-31T17:44:24.746Z,99926.75
2019-01-31T17:46:55.082Z,99926.34
2019-01-31T17:49:26.727Z,99919.45
2019-01-31T17:51:57.089Z,99923.77
2019-01-31T17:54:27.528Z,99912.78
2019-01-31T17:56:57.639Z,99916.95
2019-01-31T17:59:27.718Z,99916.17
2019-01-31T18:01:57.872Z,99909.66
2019-01-31T18:04:28.452Z,99912.06
2019-01-31T18:06:59.142Z,99908.87
2019-01-31T18:09:29.783Z,99913.83
2019-01-31T18:12:00.292Z,99907.38
2019-01-31T18:14:30.662Z,99907.73
2019-01-31T18:17:01.321Z,99907.25
2019-01-31T18:19:31.844Z,99908.19
2019-01-31T18:22:02.370Z,99906.45
2019-01-31T18:24:32.648Z,99906.92
2019-01-31T18:27:02.791Z,99904.17
2019-01-31T18:29:33.010Z,99912.31
2019-01-31T18:32:03.084Z,99906.45
2019-01-31T18:34:33.834Z,99904.17
2019-01-31T18:37:03.785Z,99906.66
2019-01-31T18:39:33.898Z,99903.44
2019-01-31T18:42:10.743Z,99906.27
2019-01-31T18:44:43.685Z,99908.31
2019-01-31T18:47:12.584Z,99910.50
2019-01-31T18:49:43.253Z,99904.50
2019-01-31T18:52:13.640Z,99910.98
2019-01-31T18:54:44.118Z,99910.23
2019-01-31T18:57:14.204Z,99912.98
2019-01-31T18:59:44.794Z,99907.25
2019-01-31T19:02:14.738Z,99906.05
2019-01-31T19:04:45.042Z,99903.83
2019-01-31T19:07:15.327Z,99904.89
2019-01-31T19:09:45.758Z,99904.23
2019-01-31T19:12:16.079Z,99900.59
2019-01-31T19:14:46.250Z,99903.56
2019-01-31T19:17:16.399Z,99910.57
2019-01-31T19:19:46.729Z,99906.70
2019-01-31T19:22:18.245Z,99899.81
2019-01-31T19:24:49.122Z,99901.50
2019-01-31T19:27:19.853Z,99896.92
2019-01-31T19:29:50.662Z,99897.83
2019-01-31T19:32:21.133Z,99893.67
2019-01-31T19:35:24.823Z,99895.41
2019-01-31T19:37:47.361Z,99893.94
2019-01-31T19:40:20.284Z,99889.38
2019-01-31T19:46:29.306Z,99896.34
2019-01-31T19:48:57.896Z,99898.05
2019-01-31T19:51:28.325Z,99894.30
2019-01-31T19:53:58.283Z,99894.70
2019-01-31T19:56:28.939Z,99892.61
2019-01-31T19:58:59.383Z,99884.53
2019-01-31T20:01:29.979Z,99884.61
2019-01-31T20:04:00.612Z,99893.28
2019-01-31T20:06:31.283Z,99886.17
2019-01-31T20:09:01.862Z,99886.63
2019-01-31T20:11:32.134Z,99886.72
2019-01-31T20:14:02.614Z,99886.23
2019-01-31T20:16:32.905Z,99894.77
2019-01-31T20:19:03.086Z,99885.52
2019-01-31T20:21:33.576Z,99885.43
2019-01-31T20:24:03.713Z,99888.72
2019-01-31T20:26:37.345Z,99879.97
2019-01-31T20:29:07.416Z,99883.70
2019-01-31T20:31:37.429Z,99880.45
2019-01-31T20:34:07.759Z,99882.23
2019-01-31T20:36:37.857Z,99886.09
2019-01-31T20:39:08.828Z,99890.97
2019-01-31T20:41:39.163Z,99891.82
2019-01-31T20:44:09.624Z,99889.46
2019-01-31T20:46:40.482Z,99898.74
2019-01-31T20:49:11.104Z,99889.64
2019-01-31T20:51:41.453Z,99903.42
2019-01-31T20:54:11.919Z,99901.96
2019-01-31T20:56:43.365Z,99901.56
2019-01-31T20:59:13.816Z,99902.98
2019-01-31T21:01:44.285Z,99904.37
2019-01-31T21:04:15.177Z,99905.38
2019-01-31T21:06:45.708Z,99909.78
2019-01-31T21:09:16.501Z,99913.03
2019-01-31T21:11:46.986Z,99913.83
2019-01-31T21:14:17.416Z,99917.30
2019-01-31T21:16:51.784Z,99923.24
2019-01-31T21:19:19.819Z,99916.31
2019-01-31T21:21:50.312Z,99915.83
2019-01-31T21:24:21.140Z,99921.04
2019-01-31T21:26:57.170Z,99920.98
2019-01-31T21:29:27.527Z,99923.42
2019-01-31T21:32:00.271Z,99917.81
2019-01-31T21:34:32.486Z,99918.70
2019-01-31T21:37:04.787Z,99909.09
2019-01-31T21:39:35.016Z,99913.91
2019-01-31T21:42:24.125Z,99911.52
2019-01-31T21:45:21.300Z,99910.45
2019-01-31T21:47:53.174Z,99906.64
2019-01-31T21:50:34.107Z,99907.92
2019-01-31T21:53:16.768Z,99909.66
2019-01-31T21:55:46.680Z,99913.66
2019-01-31T21:58:23.696Z,99914.05
2019-01-31T22:01:01.173Z,99913.52
2019-01-31T22:03:32.671Z,99917.03
2019-01-31T22:06:02.934Z,99914.77
2019-01-31T22:08:32.698Z,99914.59
2019-01-31T22:11:02.531Z,99910.72
2019-01-31T22:13:32.715Z,99902.19
2019-01-31T22:16:03.453Z,99905.66
2019-01-31T22:18:33.186Z,99902.59
2019-01-31T22:21:04.344Z,99912.11
2019-01-31T22:23:35.332Z,99909.70
2019-01-31T22:26:05.169Z,99907.97
2019-01-31T22:28:36.614Z,99905.70
2019-01-31T22:31:07.335Z,99903.17
2019-01-31T22:33:38.997Z,99899.17
2019-01-31T22:36:09.696Z,99903.12
2019-01-31T22:38:40.381Z,99901.57
2019-01-31T22:41:10.709Z,99905.84
2019-01-31T22:43:42.179Z,99901.25
2019-01-31T22:46:13.193Z,99900.77
2019-01-31T22:48:44.261Z,99899.83
2019-01-31T22:51:15.620Z,99891.44
2019-01-31T22:53:46.280Z,99895.03
2019-01-31T22:56:17.001Z,99892.19
2019-01-31T22:58:47.995Z,99895.03
2019-01-31T23:01:31.546Z,99892.31
2019-01-31T23:04:06.513Z,99889.03
2019-01-31T23:06:38.638Z,99884.89
2019-01-31T23:09:09.718Z,99879.97
2019-01-31T23:11:40.107Z,99879.97
2019-01-31T23:14:15.999Z,99872.50
2019-01-31T23:16:48.567Z,99875.44
2019-01-31T23:19:20.258Z,99869.66
2019-01-31T23:21:51.571Z,99865.16
2019-01-31T23:24:23.544Z,99862.28
2019-01-31T23:26:55.227Z,99859.21
2019-01-31T23:29:26.636Z,99857.34
2019-01-31T23:31:57.252Z,99858.27
2019-01-31T23:34:28.810Z,99856.95
2019-01-31T23:37:00.072Z,99855.25
2019-01-31T23:39:31.377Z,99857.30
2019-01-31T23:42:03.593Z,99860.34
2019-01-31T23:44:36.334Z,99849.94
2019-01-31T23:47:07.866Z,99846.77
2019-01-31T23:49:39.423Z,99848.75
2019-01-31T23:52:10.327Z,99847.47
2019-01-31T23:54:41.715Z,99849.33
2019-01-31T23:57:12.387Z,99845.70
2019-01-31T23:59:43.126Z,99846.42
